createdAt,value
2019-02-07T00:00:26.978Z,20.5
2019-02-07T00:01:20.560Z,20.3
2019-02-07T00:02:08.478Z,20.1
2019-02-07T00:02:58.572Z,20
2019-02-07T00:03:47.910Z,19.9
2019-02-07T00:04:38.205Z,19.8
2019-02-07T00:05:28.238Z,19.9
2019-02-07T00:06:17.910Z,20.5
2019-02-07T00:07:10.443Z,21
2019-02-07T00:07:59.267Z,21.4
2019-02-07T00:08:48.484Z,21.6
2019-02-07T00:09:38.700Z,21.9
2019-02-07T00:10:28.842Z,22.1
2019-02-07T00:11:18.825Z,22.3
2019-02-07T00:12:09.025Z,22.4
2019-02-07T00:12:58.882Z,22.6
2019-02-07T00:13:48.706Z,22.8
2019-02-07T00:14:47.979Z,22.9
2019-02-07T00:15:28.272Z,22.9
2019-02-07T00:16:21.214Z,23.1
2019-02-07T00:17:09.231Z,23.1
2019-02-07T00:17:58.491Z,22.7
2019-02-07T00:18:48.584Z,22.3
2019-02-07T00:19:40.616Z,21.9
2019-02-07T00:20:28.179Z,21.6
2019-02-07T00:21:20.102Z,21.4
2019-02-07T00:22:08.771Z,21.2
2019-02-07T00:23:00.215Z,21
2019-02-07T00:23:49.684Z,20.9
2019-02-07T00:24:51.516Z,20.8
2019-02-07T00:25:31.989Z,20.6
2019-02-07T00:26:19.368Z,20.5
2019-02-07T00:27:10.307Z,20.5
2019-02-07T00:27:59.804Z,20.3
2019-02-07T00:28:51.641Z,20.2
2019-02-07T00:29:40.656Z,20
2019-02-07T00:30:29.708Z,19.9
2019-02-07T00:31:20.425Z,19.8
2019-02-07T00:32:10.568Z,19.8
2019-02-07T00:32:58.718Z,20.2
2019-02-07T00:33:50.702Z,20.8
2019-02-07T00:34:43.139Z,21.2
2019-02-07T00:35:29.979Z,21.5
2019-02-07T00:36:20.043Z,21.7
2019-02-07T00:37:10.632Z,21.9
2019-02-07T00:38:01.555Z,22.1
2019-02-07T00:38:50.173Z,22.3
2019-02-07T00:39:40.538Z,22.4
2019-02-07T00:40:30.035Z,22.6
2019-02-07T00:41:20.932Z,22.7
2019-02-07T00:42:10.508Z,22.8
2019-02-07T00:43:01.335Z,22.9
2019-02-07T00:43:53.072Z,23
2019-02-07T00:44:55.620Z,23.1
2019-02-07T00:45:30.915Z,22.6
2019-02-07T00:46:20.008Z,22.3
2019-02-07T00:47:13.414Z,21.9
2019-02-07T00:48:00.867Z,21.6
2019-02-07T00:48:51.555Z,21.4
2019-02-07T00:49:41.218Z,21.2
2019-02-07T00:50:34.649Z,21
2019-02-07T00:51:22.293Z,20.8
2019-02-07T00:52:11.799Z,20.8
2019-02-07T00:53:03.892Z,20.6
2019-02-07T00:53:52.168Z,20.5
2019-02-07T00:54:42.251Z,20.4
2019-02-07T00:55:31.381Z,20.4
2019-02-07T00:56:24.069Z,20.3
2019-02-07T00:57:12.740Z,20.1
2019-02-07T00:58:02.200Z,19.9
2019-02-07T00:58:51.702Z,19.8
2019-02-07T00:59:41.947Z,19.8
2019-02-07T01:00:32.153Z,20.2
2019-02-07T01:01:23.014Z,20.8
2019-02-07T01:02:14.159Z,21.1
2019-02-07T01:03:02.754Z,21.4
2019-02-07T01:03:51.946Z,21.6
2019-02-07T01:04:42.420Z,21.8
2019-02-07T01:05:35.156Z,22
2019-02-07T01:06:22.386Z,22
2019-02-07T01:07:12.313Z,21.6
2019-02-07T01:08:01.461Z,20.9
2019-02-07T01:08:52.963Z,20.3
2019-02-07T01:09:41.882Z,19.8
2019-02-07T01:10:32.408Z,19.3
2019-02-07T01:11:23.675Z,18.4
2019-02-07T01:12:12.295Z,18
2019-02-07T01:13:03.437Z,18.1
2019-02-07T01:13:52.559Z,18.6
2019-02-07T01:14:46.150Z,19.3
2019-02-07T01:15:33.360Z,20
2019-02-07T01:16:23.215Z,20.5
2019-02-07T01:17:12.810Z,20.9
2019-02-07T01:18:03.258Z,21.3
2019-02-07T01:18:53.615Z,21.6
2019-02-07T01:19:43.140Z,21.9
2019-02-07T01:20:35.121Z,22.1
2019-02-07T01:21:22.790Z,22.3
2019-02-07T01:22:13.512Z,22.5
2019-02-07T01:23:03.747Z,22.6
2019-02-07T01:23:54.617Z,22.8
2019-02-07T01:24:43.207Z,22.9
2019-02-07T01:25:33.115Z,23
2019-02-07T01:26:24.174Z,23.1
2019-02-07T01:27:13.919Z,23.1
2019-02-07T01:28:03.714Z,22.6
2019-02-07T01:28:53.213Z,22.1
2019-02-07T01:29:46.589Z,21.8
2019-02-07T01:30:34.466Z,21.4
2019-02-07T01:31:23.931Z,21.3
2019-02-07T01:32:14.014Z,21.1
2019-02-07T01:33:03.801Z,20.9
2019-02-07T01:33:54.419Z,20.8
2019-02-07T01:34:43.389Z,20.6
2019-02-07T01:35:34.374Z,20.5
2019-02-07T01:36:23.741Z,20.4
2019-02-07T01:37:13.804Z,20.3
2019-02-07T01:38:04.481Z,20.3
2019-02-07T01:38:57.132Z,20.1
2019-02-07T01:39:45.394Z,19.9
2019-02-07T01:40:33.561Z,19.8
2019-02-07T01:41:24.658Z,19.8
2019-02-07T01:42:13.916Z,19.9
2019-02-07T01:43:05.001Z,20.4
2019-02-07T01:43:54.362Z,20.9
2019-02-07T01:44:46.713Z,21.3
2019-02-07T01:45:35.203Z,21.6
2019-02-07T01:46:25.766Z,21.8
2019-02-07T01:47:15.117Z,22.1
2019-02-07T01:48:08.813Z,22.2
2019-02-07T01:48:54.107Z,22.4
2019-02-07T01:49:44.906Z,22.5
2019-02-07T01:50:34.971Z,22.6
2019-02-07T01:51:24.518Z,22.8
2019-02-07T01:52:16.325Z,22.9
2019-02-07T01:53:05.458Z,23
2019-02-07T01:53:57.730Z,23.1
2019-02-07T01:54:46.066Z,23
2019-02-07T01:55:36.159Z,22.5
2019-02-07T01:56:26.305Z,22.1
2019-02-07T01:57:18.932Z,21.7
2019-02-07T01:58:05.930Z,21.4
2019-02-07T01:58:56.187Z,21.2
2019-02-07T01:59:45.498Z,21
2019-02-07T02:00:36.814Z,20.9
2019-02-07T02:01:25.990Z,20.7
2019-02-07T02:02:16.590Z,20.6
2019-02-07T02:03:08.377Z,20.5
2019-02-07T02:03:57.032Z,20.4
2019-02-07T02:04:46.802Z,20.4
2019-02-07T02:05:37.423Z,20.3
2019-02-07T02:06:28.985Z,20.1
2019-02-07T02:07:16.437Z,19.9
2019-02-07T02:08:06.599Z,19.8
2019-02-07T02:08:57.472Z,19.7
2019-02-07T02:09:47.167Z,20
2019-02-07T02:10:36.077Z,20.6
2019-02-07T02:11:25.659Z,21
2019-02-07T02:12:19.123Z,21.3
2019-02-07T02:13:07.989Z,21.6
2019-02-07T02:13:56.856Z,21.9
2019-02-07T02:14:45.991Z,22.1
2019-02-07T02:15:39.100Z,22.2
2019-02-07T02:16:30.009Z,22.4
2019-02-07T02:17:17.121Z,22.5
2019-02-07T02:18:07.729Z,22.6
2019-02-07T02:18:56.949Z,22.8
2019-02-07T02:19:47.296Z,22.9
2019-02-07T02:20:37.338Z,23
2019-02-07T02:21:30.214Z,23.1
2019-02-07T02:22:17.981Z,22.8
2019-02-07T02:23:07.852Z,22.4
2019-02-07T02:23:57.899Z,21.9
2019-02-07T02:24:53.656Z,21.6
2019-02-07T02:25:38.618Z,21.4
2019-02-07T02:26:28.341Z,21.2
2019-02-07T02:27:18.936Z,21
2019-02-07T02:28:08.734Z,20.8
2019-02-07T02:28:59.056Z,20.7
2019-02-07T02:29:49.078Z,20.6
2019-02-07T02:30:41.611Z,20.4
2019-02-07T02:31:27.872Z,20.4
2019-02-07T02:32:18.571Z,20.3
2019-02-07T02:33:08.758Z,20.2
2019-02-07T02:33:59.508Z,20
2019-02-07T02:34:48.935Z,19.9
2019-02-07T02:35:38.920Z,19.8
2019-02-07T02:36:28.790Z,19.7
2019-02-07T02:37:18.811Z,20.2
2019-02-07T02:38:07.765Z,20.8
2019-02-07T02:38:58.873Z,21.1
2019-02-07T02:39:51.180Z,21.4
2019-02-07T02:40:39.062Z,21.6
2019-02-07T02:41:29.667Z,21.9
2019-02-07T02:42:18.927Z,22.1
2019-02-07T02:43:08.463Z,22.2
2019-02-07T02:43:59.280Z,22.4
2019-02-07T02:44:49.893Z,22.5
2019-02-07T02:45:46.407Z,22.6
2019-02-07T02:46:28.705Z,22.8
2019-02-07T02:47:18.707Z,22.8
2019-02-07T02:48:09.911Z,22.9
2019-02-07T02:49:01.589Z,23.1
2019-02-07T02:49:49.947Z,22.8
2019-02-07T02:50:39.347Z,22.3
2019-02-07T02:51:29.534Z,21.9
2019-02-07T02:52:19.644Z,21.6
2019-02-07T02:53:09.138Z,21.3
2019-02-07T02:54:00.525Z,21.1
2019-02-07T02:54:52.540Z,20.9
2019-02-07T02:55:40.750Z,20.8
2019-02-07T02:56:30.170Z,20.6
2019-02-07T02:57:20.331Z,20.6
2019-02-07T02:58:13.536Z,20.4
2019-02-07T02:58:59.052Z,20.3
2019-02-07T02:59:50.163Z,20.3
2019-02-07T03:00:40.009Z,20.2
2019-02-07T03:01:30.514Z,20
2019-02-07T03:02:19.183Z,19.9
2019-02-07T03:03:10.951Z,19.8
2019-02-07T03:04:01.435Z,19.6
2019-02-07T03:04:51.504Z,20.1
2019-02-07T03:08:23.056Z,21.6
2019-02-07T03:09:12.795Z,21.9
2019-02-07T03:10:03.075Z,22
2019-02-07T03:10:54.378Z,22.2
2019-02-07T03:11:43.135Z,22.3
2019-02-07T03:12:33.175Z,22.5
2019-02-07T03:13:22.528Z,22.3
2019-02-07T03:14:16.228Z,21.9
2019-02-07T03:15:03.590Z,21
2019-02-07T03:15:58.143Z,20.4
2019-02-07T03:16:43.204Z,19.8
2019-02-07T03:17:33.928Z,19.1
2019-02-07T03:18:23.022Z,18.5
2019-02-07T03:19:13.670Z,18.6
2019-02-07T03:20:06.530Z,18.8
2019-02-07T03:20:53.169Z,19.6
2019-02-07T03:21:42.927Z,20.1
2019-02-07T03:22:33.561Z,20.6
2019-02-07T03:23:26.193Z,21.1
2019-02-07T03:24:14.571Z,21.4
2019-02-07T03:25:04.351Z,21.7
2019-02-07T03:25:53.817Z,21.9
2019-02-07T03:26:44.422Z,22.1
2019-02-07T03:27:33.916Z,22.3
2019-02-07T03:28:24.608Z,22.4
2019-02-07T03:29:16.840Z,22.6
2019-02-07T03:30:04.940Z,22.8
2019-02-07T03:30:55.008Z,22.9
2019-02-07T03:31:44.985Z,23
2019-02-07T03:32:37.241Z,23.1
2019-02-07T03:33:24.146Z,22.6
2019-02-07T03:34:13.479Z,22.1
2019-02-07T03:35:05.252Z,21.8
2019-02-07T03:35:55.258Z,21.4
2019-02-07T03:36:44.159Z,21.2
2019-02-07T03:37:35.362Z,21
2019-02-07T03:38:27.958Z,20.8
2019-02-07T03:39:14.970Z,20.7
2019-02-07T03:40:04.852Z,20.6
2019-02-07T03:40:55.084Z,20.4
2019-02-07T03:41:45.058Z,20.3
2019-02-07T03:42:34.403Z,20.3
2019-02-07T03:43:25.551Z,20.2
2019-02-07T03:44:15.607Z,20
2019-02-07T03:45:04.797Z,19.9
2019-02-07T03:46:09.225Z,19.7
2019-02-07T03:46:44.216Z,19.7
2019-02-07T03:47:38.388Z,20
2019-02-07T03:48:25.121Z,20.6
2019-02-07T03:49:14.916Z,21
2019-02-07T03:50:04.813Z,21.3
2019-02-07T03:50:57.163Z,21.6
2019-02-07T03:51:46.076Z,21.8
2019-02-07T03:52:35.050Z,22.1
2019-02-07T03:53:26.603Z,22.2
2019-02-07T03:54:15.710Z,22.3
2019-02-07T03:55:06.666Z,22.4
2019-02-07T03:55:56.610Z,22.6
2019-02-07T03:56:49.248Z,22.7
2019-02-07T03:57:35.240Z,22.8
2019-02-07T03:58:26.828Z,22.9
2019-02-07T03:59:16.063Z,23
2019-02-07T04:00:08.081Z,22.8
2019-02-07T04:00:56.447Z,22.2
2019-02-07T04:01:47.138Z,21.8
2019-02-07T04:02:37.138Z,21.5
2019-02-07T04:03:27.502Z,21.3
2019-02-07T04:04:16.655Z,21.1
2019-02-07T04:05:07.392Z,20.9
2019-02-07T04:05:59.724Z,20.7
2019-02-07T04:06:46.344Z,20.6
2019-02-07T04:07:37.317Z,20.4
2019-02-07T04:08:26.770Z,20.3
2019-02-07T04:09:18.155Z,20.3
2019-02-07T04:10:06.854Z,20.2
2019-02-07T04:10:56.623Z,20.1
2019-02-07T04:11:47.958Z,19.9
2019-02-07T04:12:37.801Z,19.8
2019-02-07T04:13:27.134Z,19.7
2019-02-07T04:14:17.222Z,19.8
2019-02-07T04:15:09.600Z,20.4
2019-02-07T04:15:57.462Z,20.9
2019-02-07T04:16:47.984Z,21.2
2019-02-07T04:17:37.671Z,21.5
2019-02-07T04:18:29.209Z,21.8
2019-02-07T04:19:18.315Z,21.9
2019-02-07T04:20:08.807Z,22.1
2019-02-07T04:20:58.490Z,22.3
2019-02-07T04:21:48.471Z,22.4
2019-02-07T04:22:37.491Z,22.6
2019-02-07T04:23:28.059Z,22.7
2019-02-07T04:24:23.969Z,22.8
2019-02-07T04:25:26.126Z,22.9
2019-02-07T04:25:57.749Z,23
2019-02-07T04:26:48.275Z,22.8
2019-02-07T04:27:39.631Z,22.2
2019-02-07T04:28:28.526Z,21.8
2019-02-07T04:29:19.090Z,21.5
2019-02-07T04:30:09.431Z,21.3
2019-02-07T04:30:59.279Z,21
2019-02-07T04:31:49.222Z,20.8
2019-02-07T04:32:38.834Z,20.7
2019-02-07T04:33:31.518Z,20.6
2019-02-07T04:34:18.534Z,20.4
2019-02-07T04:35:09.802Z,20.3
2019-02-07T04:35:59.025Z,20.3
2019-02-07T04:36:50.055Z,20.3
2019-02-07T04:37:39.219Z,20.1
2019-02-07T04:38:29.392Z,19.9
2019-02-07T04:39:18.453Z,19.8
2019-02-07T04:40:14.681Z,19.6
2019-02-07T04:40:59.569Z,19.8
2019-02-07T04:41:49.346Z,20.3
2019-02-07T04:42:42.037Z,20.8
2019-02-07T04:44:19.615Z,21.4
2019-02-07T04:45:10.032Z,21.7
2019-02-07T04:46:02.182Z,21.9
2019-02-07T04:46:49.980Z,22.1
2019-02-07T04:47:39.187Z,22.3
2019-02-07T04:48:30.410Z,22.4
2019-02-07T04:49:19.914Z,22.5
2019-02-07T04:50:09.694Z,22.7
2019-02-07T04:51:00.126Z,22.8
2019-02-07T04:51:52.795Z,22.9
2019-02-07T04:52:40.099Z,23
2019-02-07T04:53:30.433Z,22.9
2019-02-07T04:54:19.654Z,22.4
2019-02-07T04:55:12.946Z,21.9
2019-02-07T04:56:00.582Z,21.6
2019-02-07T04:56:50.942Z,21.3
2019-02-07T04:57:40.542Z,21.1
2019-02-07T04:58:30.741Z,20.9
2019-02-07T04:59:20.347Z,20.8
2019-02-07T05:00:14.112Z,20.6
2019-02-07T05:01:03.407Z,20.5
2019-02-07T05:01:51.262Z,20.4
2019-02-07T05:02:40.795Z,20.3
2019-02-07T05:03:31.566Z,20.3
2019-02-07T05:04:22.211Z,20.1
2019-02-07T05:05:10.778Z,20
2019-02-07T05:06:01.044Z,19.8
2019-02-07T05:06:51.498Z,19.7
2019-02-07T05:07:40.873Z,19.6
2019-02-07T05:08:31.874Z,20.1
2019-02-07T05:09:20.670Z,20.6
2019-02-07T05:10:14.151Z,21
2019-02-07T05:10:59.960Z,21.3
2019-02-07T05:11:50.586Z,21.5
2019-02-07T05:12:40.646Z,21.8
2019-02-07T05:13:31.562Z,21.9
2019-02-07T05:14:21.166Z,22.1
2019-02-07T05:15:11.634Z,22.3
2019-02-07T05:16:03.001Z,22.4
2019-02-07T05:16:52.534Z,22.6
2019-02-07T05:17:42.413Z,22.7
2019-02-07T05:18:32.245Z,22.8
2019-02-07T05:19:24.580Z,22.9
2019-02-07T05:20:12.020Z,22.7
2019-02-07T05:21:00.936Z,22.3
2019-02-07T05:21:52.121Z,21.4
2019-02-07T05:22:41.620Z,20.7
2019-02-07T05:23:31.398Z,20.1
2019-02-07T05:24:21.989Z,19.3
2019-02-07T05:25:13.990Z,18.8
2019-02-07T05:26:02.952Z,18.8
2019-02-07T05:26:52.849Z,19.3
2019-02-07T05:27:43.942Z,19.9
2019-02-07T05:28:35.199Z,20.6
2019-02-07T05:29:22.954Z,21
2019-02-07T05:30:13.246Z,21.4
2019-02-07T05:31:02.753Z,21.7
2019-02-07T05:31:52.604Z,21.9
2019-02-07T05:32:44.395Z,22.1
2019-02-07T05:33:32.978Z,22.3
2019-02-07T05:34:25.401Z,22.4
2019-02-07T05:35:13.074Z,22.6
2019-02-07T05:36:03.174Z,22.8
2019-02-07T05:36:52.650Z,22.9
2019-02-07T05:37:44.955Z,23
2019-02-07T05:38:33.882Z,22.8
2019-02-07T05:39:22.304Z,22.3
2019-02-07T05:40:13.214Z,21.9
2019-02-07T05:41:03.444Z,21.6
2019-02-07T05:41:54.072Z,21.3
2019-02-07T05:42:43.046Z,21.1
2019-02-07T05:43:35.626Z,20.9
2019-02-07T05:44:23.774Z,20.7
2019-02-07T05:45:13.778Z,20.6
2019-02-07T05:46:03.791Z,20.4
2019-02-07T05:47:02.888Z,20.3
2019-02-07T05:47:43.706Z,20.3
2019-02-07T05:48:34.388Z,20.2
2019-02-07T05:49:23.465Z,20.1
2019-02-07T05:50:14.331Z,19.9
2019-02-07T05:51:04.728Z,19.8
2019-02-07T05:51:54.265Z,19.6
2019-02-07T05:52:46.479Z,19.5
2019-02-07T05:53:33.763Z,19.4
2019-02-07T05:54:24.630Z,19.3
2019-02-07T05:55:13.956Z,19.3
2019-02-07T05:56:04.623Z,19.8
2019-02-07T05:56:53.295Z,20.4
2019-02-07T05:57:44.648Z,20.8
2019-02-07T05:59:24.420Z,21.4
2019-02-07T06:00:14.619Z,21.7
2019-02-07T06:01:04.821Z,21.9
2019-02-07T06:01:57.755Z,22.1
2019-02-07T06:02:45.532Z,22.2
2019-02-07T06:03:33.963Z,22.3
2019-02-07T06:07:12.150Z,20.8
2019-02-07T06:08:03.362Z,20.6
2019-02-07T06:08:55.030Z,20.4
2019-02-07T06:09:43.759Z,20.3
2019-02-07T06:10:32.704Z,20.2
2019-02-07T06:11:23.296Z,20.1
2019-02-07T06:12:15.534Z,19.9
2019-02-07T06:13:03.376Z,19.9
2019-02-07T06:13:53.474Z,19.8
2019-02-07T06:14:43.969Z,19.8
2019-02-07T06:15:33.545Z,19.6
2019-02-07T06:16:22.727Z,19.5
2019-02-07T06:17:13.347Z,19.4
2019-02-07T06:18:04.407Z,19.3
2019-02-07T06:19:10.791Z,19.2
2019-02-07T06:19:44.336Z,19.8
2019-02-07T06:20:33.911Z,20.2
2019-02-07T06:21:27.130Z,20.6
2019-02-07T06:22:14.011Z,21
2019-02-07T06:23:02.945Z,21.3
2019-02-07T06:23:53.954Z,21.5
2019-02-07T06:24:44.216Z,21.7
2019-02-07T06:25:34.325Z,21.9
2019-02-07T06:26:24.631Z,22.1
2019-02-07T06:27:15.769Z,22.2
2019-02-07T06:28:04.748Z,22.4
2019-02-07T06:28:53.388Z,22.1
2019-02-07T06:29:45.382Z,21.6
2019-02-07T06:30:36.717Z,21.2
2019-02-07T06:31:23.843Z,20.9
2019-02-07T06:32:14.939Z,20.7
2019-02-07T06:33:04.738Z,20.5
2019-02-07T06:33:55.711Z,20.4
2019-02-07T06:34:45.261Z,20.3
2019-02-07T06:35:34.953Z,20.1
2019-02-07T06:36:26.676Z,20
2019-02-07T06:37:15.346Z,19.8
2019-02-07T06:38:05.135Z,19.7
2019-02-07T06:38:55.462Z,19.5
2019-02-07T06:39:47.813Z,19.3
2019-02-07T06:40:34.306Z,19
2019-02-07T06:41:25.668Z,18.8
2019-02-07T06:42:15.798Z,18.6
2019-02-07T06:43:05.229Z,18.8
2019-02-07T06:43:54.748Z,19.3
2019-02-07T06:44:45.375Z,19.9
2019-02-07T06:45:37.555Z,20.4
2019-02-07T06:46:26.000Z,20.9
2019-02-07T06:47:21.304Z,21.2
2019-02-07T06:48:05.462Z,21.4
2019-02-07T06:48:57.331Z,21.6
2019-02-07T06:49:45.992Z,21.8
2019-02-07T06:50:35.830Z,21.9
2019-02-07T06:51:25.629Z,22.1
2019-02-07T06:52:16.104Z,21.7
2019-02-07T06:53:06.759Z,21.3
2019-02-07T06:53:55.455Z,20.9
2019-02-07T06:54:47.604Z,20.7
2019-02-07T06:55:37.005Z,20.5
2019-02-07T06:56:26.650Z,20.3
2019-02-07T06:57:19.432Z,20.2
2019-02-07T06:58:09.514Z,20
2019-02-07T06:58:58.877Z,19.9
2019-02-07T07:01:14.516Z,19.8
2019-02-07T07:01:25.225Z,19.6
2019-02-07T07:02:15.615Z,19.6
2019-02-07T07:03:05.205Z,19.5
2019-02-07T07:04:01.110Z,19.4
2019-02-07T07:06:22.815Z,19.1
2019-02-07T07:07:13.592Z,19.2
2019-02-07T07:08:02.651Z,19.9
2019-02-07T07:08:53.025Z,20.4
2019-02-07T07:09:42.995Z,20.8
2019-02-07T07:10:32.261Z,21.2
2019-02-07T07:11:23.487Z,21.4
2019-02-07T07:12:13.342Z,21.6
2019-02-07T07:13:05.779Z,21.8
2019-02-07T07:13:53.355Z,21.9
2019-02-07T07:14:43.474Z,22.1
2019-02-07T07:15:32.997Z,22.2
2019-02-07T07:16:25.354Z,22.2
2019-02-07T07:17:12.462Z,21.6
2019-02-07T07:18:03.385Z,21.2
2019-02-07T07:18:53.251Z,20.9
2019-02-07T07:19:43.769Z,20.7
2019-02-07T07:20:33.142Z,20.4
2019-02-07T07:21:23.036Z,20.3
2019-02-07T07:22:15.294Z,20.1
2019-02-07T07:23:04.285Z,20
2019-02-07T07:23:54.058Z,19.9
2019-02-07T07:24:43.805Z,19.8
2019-02-07T07:25:36.823Z,19.8
2019-02-07T07:26:23.945Z,19.7
2019-02-07T07:27:13.176Z,19.6
2019-02-07T07:28:04.068Z,19.4
2019-02-07T07:28:54.419Z,19.3
2019-02-07T07:29:44.715Z,19.2
2019-02-07T07:30:34.491Z,19.1
2019-02-07T07:31:25.380Z,19
2019-02-07T07:32:17.357Z,19.3
2019-02-07T07:33:04.308Z,20
2019-02-07T07:33:53.540Z,20.5
2019-02-07T07:34:44.810Z,20.9
2019-02-07T07:35:34.206Z,21.3
2019-02-07T07:36:24.421Z,21.5
2019-02-07T07:37:14.284Z,21.7
2019-02-07T07:38:04.828Z,21.9
2019-02-07T07:38:54.604Z,22
2019-02-07T07:39:44.103Z,22.2
2019-02-07T07:40:34.998Z,22.3
2019-02-07T07:41:25.347Z,22.4
2019-02-07T07:42:15.182Z,21.8
2019-02-07T07:43:04.079Z,21.4
2019-02-07T07:43:57.293Z,21.1
2019-02-07T07:44:44.199Z,20.8
2019-02-07T07:45:35.625Z,20.6
2019-02-07T07:46:24.562Z,20.4
2019-02-07T07:47:14.383Z,20.3
2019-02-07T07:48:04.615Z,20.1
2019-02-07T07:48:55.202Z,20
2019-02-07T07:49:47.362Z,19.8
2019-02-07T07:50:35.222Z,19.8
2019-02-07T07:51:26.249Z,19.6
2019-02-07T07:52:15.499Z,19.6
2019-02-07T07:53:07.922Z,19.5
2019-02-07T07:53:55.747Z,19.4
2019-02-07T07:54:45.036Z,19.3
2019-02-07T07:55:33.826Z,19.2
2019-02-07T07:56:25.092Z,19.1
2019-02-07T07:57:15.547Z,19.1
2019-02-07T07:58:05.502Z,19.8
2019-02-07T07:58:57.322Z,20.3
2019-02-07T07:59:45.049Z,20.9
2019-02-07T08:00:35.981Z,21.3
2019-02-07T08:01:26.102Z,21.5
2019-02-07T08:02:18.106Z,21.7
2019-02-07T08:03:06.307Z,21.9
2019-02-07T08:03:56.612Z,22
2019-02-07T08:04:46.256Z,21.7
2019-02-07T08:05:36.496Z,21.2
2019-02-07T08:06:25.834Z,20.4
2019-02-07T08:07:15.711Z,19.9
2019-02-07T08:08:08.778Z,19.1
2019-02-07T08:08:56.618Z,18.3
2019-02-07T08:09:47.333Z,18.3
2019-02-07T08:10:37.506Z,18.4
2019-02-07T08:11:29.088Z,19.1
2019-02-07T08:12:16.063Z,19.8
2019-02-07T08:13:06.550Z,20.3
2019-02-07T08:13:56.496Z,20.8
2019-02-07T08:14:46.838Z,21.2
2019-02-07T08:15:36.623Z,21.5
2019-02-07T08:16:28.487Z,21.8
2019-02-07T08:17:19.979Z,21.9
2019-02-07T08:18:07.937Z,22.1
2019-02-07T08:18:56.619Z,22.3
2019-02-07T08:19:47.409Z,22.4
2019-02-07T08:20:41.733Z,22.3
2019-02-07T08:21:28.174Z,21.8
2019-02-07T08:22:17.606Z,21.4
2019-02-07T08:23:07.937Z,21
2019-02-07T08:23:58.333Z,20.8
2019-02-07T08:24:46.930Z,20.6
2019-02-07T08:25:37.916Z,20.4
2019-02-07T08:26:30.011Z,20.3
2019-02-07T08:27:17.611Z,20.1
2019-02-07T08:28:08.791Z,20.1
2019-02-07T08:28:56.979Z,19.9
2019-02-07T08:29:50.938Z,19.9
2019-02-07T08:30:45.047Z,19.8
2019-02-07T08:31:27.719Z,19.6
2019-02-07T08:32:17.803Z,19.5
2019-02-07T08:33:08.636Z,19.4
2019-02-07T08:33:58.726Z,19.3
2019-02-07T08:34:47.210Z,19.1
2019-02-07T08:35:40.013Z,19.2
2019-02-07T08:36:28.060Z,19.9
2019-02-07T08:37:19.345Z,20.5
2019-02-07T08:38:08.772Z,20.9
2019-02-07T08:38:59.698Z,21.3
2019-02-07T08:39:48.698Z,21.5
2019-02-07T08:40:38.988Z,21.7
2019-02-07T08:41:29.271Z,21.9
2019-02-07T08:42:18.209Z,22.1
2019-02-07T08:43:09.352Z,22.2
2019-02-07T08:43:59.524Z,22.3
2019-02-07T08:44:51.028Z,22.4
2019-02-07T08:45:39.602Z,22
2019-02-07T08:46:29.030Z,21.6
2019-02-07T08:47:19.245Z,21.2
2019-02-07T08:48:14.936Z,20.9
2019-02-07T08:49:02.852Z,20.6
2019-02-07T08:49:50.210Z,20.4
2019-02-07T08:50:39.737Z,20.3
2019-02-07T08:51:28.572Z,20.1
2019-02-07T08:52:19.857Z,20
2019-02-07T08:53:09.434Z,19.9
2019-02-07T08:54:01.146Z,19.8
2019-02-07T08:54:49.639Z,19.7
2019-02-07T08:55:42.859Z,19.7
2019-02-07T08:56:29.594Z,19.6
2019-02-07T08:57:23.228Z,19.4
2019-02-07T08:58:10.124Z,19.3
2019-02-07T08:58:59.964Z,19.2
2019-02-07T08:59:50.449Z,19.1
2019-02-07T09:00:40.069Z,19.1
2019-02-07T09:01:29.454Z,19.6
2019-02-07T09:02:19.918Z,20.3
2019-02-07T09:03:12.706Z,20.8
2019-02-07T09:04:00.367Z,21.3
2019-02-07T09:04:50.114Z,21.5
2019-02-07T09:05:40.403Z,21.7
2019-02-07T09:06:32.593Z,21.9
2019-02-07T09:07:20.836Z,22.1
2019-02-07T09:08:11.051Z,22.2
2019-02-07T09:09:01.351Z,22.4
2019-02-07T09:09:51.748Z,22.4
2019-02-07T09:10:40.454Z,21.9
2019-02-07T09:11:32.183Z,21.4
2019-02-07T09:13:11.464Z,20.8
2019-02-07T09:14:02.590Z,20.6
2019-02-07T09:14:51.496Z,20.4
2019-02-07T09:15:45.264Z,20.3
2019-02-07T09:16:31.427Z,20.1
2019-02-07T09:17:23.370Z,20
2019-02-07T09:18:21.359Z,19.9
2019-02-07T09:19:01.782Z,19.8
2019-02-07T09:19:51.580Z,19.6
2019-02-07T09:20:41.740Z,19.6
2019-02-07T09:21:33.870Z,19.5
2019-02-07T09:22:25.660Z,19.4
2019-02-07T09:23:12.935Z,19.3
2019-02-07T09:24:01.860Z,19.2
2019-02-07T09:24:54.977Z,19.1
2019-02-07T09:25:42.812Z,19.1
2019-02-07T09:26:32.445Z,19.7
2019-02-07T09:27:22.242Z,20.3
2019-02-07T09:28:11.712Z,20.9
2019-02-07T09:29:02.777Z,21.3
2019-02-07T09:29:51.760Z,21.6
2019-02-07T09:30:44.189Z,21.8
2019-02-07T09:31:32.552Z,21.9
2019-02-07T09:32:22.795Z,22.1
2019-02-07T09:33:13.037Z,22.2
2019-02-07T09:34:05.492Z,22.3
2019-02-07T09:34:53.279Z,22.4
2019-02-07T09:35:43.074Z,21.8
2019-02-07T09:36:32.804Z,21.4
2019-02-07T09:37:23.089Z,21.1
2019-02-07T09:38:13.267Z,20.8
2019-02-07T09:39:03.224Z,20.6
2019-02-07T09:39:54.563Z,20.4
2019-02-07T09:40:42.828Z,20.3
2019-02-07T09:41:33.131Z,20.1
2019-02-07T09:42:22.594Z,19.9
2019-02-07T09:43:16.229Z,19.9
2019-02-07T09:44:04.142Z,19.8
2019-02-07T09:44:53.806Z,19.7
2019-02-07T09:45:43.692Z,19.6
2019-02-07T09:46:33.471Z,19.6
2019-02-07T09:47:23.799Z,19.4
2019-02-07T09:48:24.418Z,19.3
2019-02-07T09:49:08.751Z,19.1
2019-02-07T09:49:54.318Z,19.3
2019-02-07T09:50:43.995Z,19.9
2019-02-07T09:51:33.978Z,20.5
2019-02-07T09:52:26.198Z,20.9
2019-02-07T09:53:26.020Z,21.3
2019-02-07T09:54:04.973Z,21.6
2019-02-07T09:54:54.681Z,21.8
2019-02-07T09:55:45.049Z,22
2019-02-07T09:56:34.190Z,22.1
2019-02-07T09:57:25.100Z,22.2
2019-02-07T09:58:17.565Z,22.4
2019-02-07T09:59:07.628Z,22.5
2019-02-07T09:59:54.434Z,22.3
2019-02-07T10:00:45.003Z,21.8
2019-02-07T10:01:36.092Z,21.4
2019-02-07T10:02:24.893Z,21.1
2019-02-07T10:03:14.695Z,20.9
2019-02-07T10:04:06.085Z,20.6
2019-02-07T10:04:55.183Z,20.4
2019-02-07T10:07:25.342Z,20.1
2019-02-07T10:08:12.197Z,20
2019-02-07T10:09:02.317Z,19.9
2019-02-07T10:09:52.687Z,19.8
2019-02-07T10:10:43.172Z,19.7
2019-02-07T10:11:33.187Z,19.6
2019-02-07T10:12:22.470Z,19.4
2019-02-07T10:13:14.174Z,19.3
2019-02-07T10:14:03.199Z,19.2
2019-02-07T10:14:52.727Z,19.6
2019-02-07T10:15:43.672Z,20.4
2019-02-07T10:16:36.933Z,20.9
2019-02-07T10:17:21.744Z,21.3
2019-02-07T10:18:13.061Z,21.5
2019-02-07T10:19:02.984Z,21.8
2019-02-07T10:19:53.561Z,21.9
2019-02-07T10:20:46.126Z,22.1
2019-02-07T10:21:32.609Z,22.1
2019-02-07T10:22:25.164Z,22.1
2019-02-07T10:23:12.732Z,21.9
2019-02-07T10:24:04.116Z,21.9
2019-02-07T10:24:53.933Z,21.9
2019-02-07T10:25:47.111Z,21.8
2019-02-07T10:26:34.004Z,21.6
2019-02-07T10:27:23.839Z,21.6
2019-02-07T10:28:14.196Z,21.5
2019-02-07T10:29:03.561Z,21.4
2019-02-07T10:29:53.409Z,21.3
2019-02-07T10:31:35.912Z,21.1
2019-02-07T10:32:24.251Z,21
2019-02-07T10:33:14.051Z,20.9
2019-02-07T10:34:05.410Z,20.8
2019-02-07T10:34:57.132Z,20.8
2019-02-07T10:35:44.670Z,20.6
2019-02-07T10:36:34.973Z,20.5
2019-02-07T10:37:25.133Z,20.4
2019-02-07T10:38:14.064Z,20.3
2019-02-07T10:39:04.901Z,20.2
2019-02-07T10:39:55.533Z,20.1
2019-02-07T10:40:46.195Z,20
2019-02-07T10:41:38.044Z,19.9
2019-02-07T10:42:24.937Z,19.8
2019-02-07T10:43:14.905Z,19.7
2019-02-07T10:44:07.357Z,19.6
2019-02-07T10:44:54.835Z,19.5
2019-02-07T10:45:45.765Z,19.4
2019-02-07T10:46:35.472Z,19.4
2019-02-07T10:47:24.750Z,19.3
2019-02-07T10:48:16.167Z,19.2
2019-02-07T10:49:05.720Z,19.1
2019-02-07T10:50:07.586Z,19.1
2019-02-07T10:50:45.894Z,18.9
2019-02-07T10:51:35.684Z,18.9
2019-02-07T10:52:24.029Z,18.8
2019-02-07T10:53:18.777Z,18.8
2019-02-07T10:54:56.321Z,18.6
2019-02-07T10:55:45.119Z,18.6
2019-02-07T10:56:35.906Z,18.5
2019-02-07T10:57:26.102Z,18.4
2019-02-07T10:58:16.296Z,18.3
2019-02-07T10:59:08.186Z,18.3
2019-02-07T10:59:56.689Z,18.3
2019-02-07T11:00:46.457Z,18.2
2019-02-07T11:01:36.814Z,18.1
2019-02-07T11:02:28.609Z,18.1
2019-02-07T11:03:15.795Z,18
2019-02-07T11:04:07.334Z,17.9
2019-02-07T11:04:56.483Z,17.9
2019-02-07T11:05:46.301Z,17.8
2019-02-07T11:06:36.631Z,17.8
2019-02-07T11:07:27.023Z,17.7
2019-02-07T11:08:18.170Z,17.6
2019-02-07T11:09:06.611Z,17.6
2019-02-07T11:09:56.833Z,17.6
2019-02-07T11:10:45.958Z,17.4
2019-02-07T11:11:39.725Z,17.4
2019-02-07T11:12:26.746Z,17.3
2019-02-07T11:13:17.625Z,17.3
2019-02-07T11:14:06.603Z,17.2
2019-02-07T11:14:56.710Z,17.1
2019-02-07T11:15:46.900Z,17.1
2019-02-07T11:16:37.342Z,17.1
2019-02-07T11:18:17.715Z,16.9
2019-02-07T11:19:07.810Z,16.9
2019-02-07T11:19:57.360Z,16.9
2019-02-07T11:20:49.637Z,16.8
2019-02-07T11:21:37.700Z,16.8
2019-02-07T11:22:31.177Z,16.7
2019-02-07T11:23:16.759Z,16.7
2019-02-07T11:24:06.397Z,16.6